Pagrindinis puslapis
METAR-TAF:

METAR-TAF

Oro uostai :

Ventspilio oro uostas

Ventspilis, Latvija

platuma: 57-21-28N, ilguma: 021-32-39E, Aukštis: 6 m

Dabartinis oras

Ataskaita buvo paskelbta 1 valandą ir 22 minutes, ne 12:50 UTC
Vėjas 13 kt iš Šiaurės
Temperatūra 16°C
Drėgmė 63%
Slėgis 1022 hPa
Matomumas 10 km arba daugiau
nėra debesų žemiau 1500 m ir nėra kamuolinių lietaus debesų

METAR: EVVA 011250Z AUTO 36013KT CAVOK 16/09 Q1022

Laikas: 17:12 (14:12 UTC)


TAF: trūkstamas

Orai ataskaitas ir orų prognozės (METAR, TAF).

turimą stotys yra geltonos ir raudonos taškus žemėlapyje.

Perkelti pele per norėdami pamatyti stoties vardą.

Tada spustelėkite, norėdami matyti oro stebėjimo ir prognozės.

Norėdami pakeisti žemėlapį: spustelėkite ant žalios mygtukų su juodo kryžiaus žemyn,; žalią mygtuką su brūkšneliu, jei norite nutolinti; arba žalių rodyklių gretimoms žemėlapius.


METAR-TAF: